Time;durP1;ratioP1;P1;durP2;ratioP2;P2;SDS_P1;SDS_P2;PMS_P1;PMS_P2;Temp;Humidity;BMP_temperature;BMP_pressure;BME280_temperature;BME280_humidity;BME280_pressure;Samples;Min_cycle;Max_cycle;Signal;HPM_P1;HPM_P2
2022/09/23 00:00:41;;;;;;;11.73;10.53;;;13.00;99.90;;;;;;5052876;28;20464;-67
2022/09/23 00:03:08;;;;;;;12.07;10.87;;;13.00;99.90;;;;;;5069772;28;20438;-67
2022/09/23 00:05:34;;;;;;;11.47;10.37;;;13.00;99.90;;;;;;5072885;28;21401;-67
2022/09/23 00:08:04;;;;;;;10.93;9.93;;;13.00;99.90;;;;;;5072246;28;20431;-67
2022/09/23 00:10:30;;;;;;;11.53;10.43;;;13.00;99.90;;;;;;5072871;28;20773;-68
2022/09/23 00:12:57;;;;;;;12.60;9.77;;;13.00;99.90;;;;;;5072036;28;20424;-67
2022/09/23 00:15:24;;;;;;;11.73;9.40;;;12.90;99.90;;;;;;5070779;28;20558;-67
2022/09/23 00:17:53;;;;;;;12.13;10.60;;;12.90;99.90;;;;;;5058295;28;20444;-67
2022/09/23 00:20:19;;;;;;;12.83;9.63;;;12.80;99.90;;;;;;5052685;28;20801;-68
2022/09/23 00:22:45;;;;;;;10.30;9.30;;;12.80;99.90;;;;;;5052215;28;20435;-67
2022/09/23 00:25:11;;;;;;;12.57;10.20;;;12.90;99.90;;;;;;5069460;28;20866;-67
2022/09/23 00:27:38;;;;;;;9.97;8.63;;;12.90;99.90;;;;;;5068976;28;20193;-68
2022/09/23 00:30:06;;;;;;;10.10;8.10;;;12.90;99.90;;;;;;5053210;28;20422;-67
2022/09/23 00:32:33;;;;;;;8.90;8.07;;;12.90;99.90;;;;;;5052549;28;20519;-67
2022/09/23 00:34:59;;;;;;;8.67;7.97;;;12.90;99.90;;;;;;5054689;28;20958;-67
2022/09/23 00:37:24;;;;;;;9.00;7.23;;;12.90;99.90;;;;;;5072399;28;20511;-67
2022/09/23 00:39:50;;;;;;;8.97;7.40;;;12.90;99.90;;;;;;5071087;28;20477;-68
2022/09/23 00:42:21;;;;;;;10.40;8.60;;;12.90;99.90;;;;;;5069738;28;20420;-74
2022/09/23 00:44:53;;;;;;;8.27;7.57;;;12.90;99.90;;;;;;5065270;28;20203;-67
2022/09/23 00:47:50;;;;;;;10.70;7.53;;;12.90;99.90;;;;;;5072188;28;20461;-68
2022/09/23 00:50:19;;;;;;;9.13;8.03;;;12.90;99.90;;;;;;5071008;28;20528;-74
2022/09/23 00:52:46;;;;;;;7.63;6.90;;;12.90;99.90;;;;;;5072773;28;20417;-67
2022/09/23 00:55:26;;;;;;;12.73;7.30;;;12.90;99.90;;;;;;5071665;28;20420;-67
2022/09/23 00:57:56;;;;;;;9.07;8.30;;;12.90;99.90;;;;;;5072789;28;20545;-67
2022/09/23 01:00:22;;;;;;;8.30;7.60;;;12.90;99.90;;;;;;5072117;28;20498;-67
2022/09/23 01:02:48;;;;;;;8.37;7.57;;;12.90;99.90;;;;;;5054307;28;20434;-67
2022/09/23 01:05:15;;;;;;;9.30;8.27;;;12.90;99.90;;;;;;5062811;28;20443;-67
2022/09/23 01:07:41;;;;;;;7.70;7.00;;;12.90;99.90;;;;;;5071472;28;20770;-67
2022/09/23 01:10:08;;;;;;;8.50;7.60;;;12.90;99.90;;;;;;5072278;28;20411;-67
2022/09/23 01:13:03;;;;;;;8.23;7.40;;;12.90;99.90;;;;;;5046829;28;20210;-67
2022/09/23 01:16:06;;;;;;;8.53;6.83;;;12.90;99.90;;;;;;5049629;28;20475;-67
2022/09/23 01:19:01;;;;;;;8.27;7.47;;;12.80;99.90;;;;;;5044924;28;20450;-67
2022/09/23 01:21:51;;;;;;;7.90;7.20;;;12.80;99.90;;;;;;5069551;28;20964;-67
2022/09/23 01:24:48;;;;;;;7.90;7.20;;;12.80;99.90;;;;;;5072245;28;20767;-67
2022/09/23 01:27:27;;;;;;;8.03;7.20;;;12.80;99.90;;;;;;5071696;28;20965;-67
2022/09/23 01:30:13;;;;;;;8.20;7.50;;;12.80;99.90;;;;;;5072035;28;20395;-67
2022/09/23 01:32:47;;;;;;;8.60;7.80;;;12.90;99.90;;;;;;5059529;28;20471;-67
2022/09/23 01:35:24;;;;;;;8.33;7.63;;;12.90;99.90;;;;;;5067266;28;20402;-67
2022/09/23 01:38:08;;;;;;;9.63;7.67;;;12.90;99.90;;;;;;5055293;28;20483;-67
2022/09/23 01:40:49;;;;;;;9.23;7.20;;;12.90;99.90;;;;;;5071241;28;20396;-67
2022/09/23 01:43:25;;;;;;;9.03;7.90;;;12.90;99.90;;;;;;5071963;28;20413;-67
2022/09/23 01:45:56;;;;;;;8.30;7.50;;;12.90;99.90;;;;;;5052969;28;20865;-67
2022/09/23 01:48:33;;;;;;;8.40;7.70;;;12.90;99.90;;;;;;5070247;28;20763;-74
2022/09/23 01:51:09;;;;;;;8.70;7.77;;;12.90;99.90;;;;;;5069343;28;20475;-67
2022/09/23 01:53:42;;;;;;;8.13;6.70;;;12.90;99.90;;;;;;5071113;28;20944;-67
2022/09/23 01:56:25;;;;;;;8.10;7.30;;;12.90;99.90;;;;;;5071978;28;20436;-67
2022/09/23 01:59:20;;;;;;;7.93;7.23;;;12.90;99.90;;;;;;5071917;28;20412;-67
2022/09/23 02:02:20;;;;;;;7.60;6.80;;;12.90;99.90;;;;;;5051771;28;20428;-67
2022/09/23 02:05:17;;;;;;;7.70;7.00;;;12.90;99.90;;;;;;5050862;28;20889;-67
2022/09/23 02:07:49;;;;;;;8.23;7.43;;;12.90;99.90;;;;;;5049493;28;20441;-67
2022/09/23 02:10:27;;;;;;;7.73;7.10;;;12.90;99.90;;;;;;5051621;28;20885;-67
2022/09/23 02:13:00;;;;;;;7.67;6.50;;;12.90;99.90;;;;;;5051405;28;20884;-67
2022/09/23 02:15:36;;;;;;;7.80;7.10;;;12.90;99.90;;;;;;5050378;28;20488;-68
2022/09/23 02:18:12;;;;;;;11.10;6.90;;;12.90;99.90;;;;;;5086562;28;20518;-67
2022/09/23 02:20:40;;;;;;;7.63;6.93;;;12.90;99.90;;;;;;5070762;28;20407;-67
2022/09/23 02:23:13;;;;;;;7.80;7.03;;;12.90;99.90;;;;;;5072107;28;20419;-67
2022/09/23 02:26:07;;;;;;;8.00;7.30;;;12.90;99.90;;;;;;5074317;28;20485;-67
2022/09/23 02:28:55;;;;;;;7.67;7.00;;;12.90;99.90;;;;;;5066961;28;20436;-67
2022/09/23 02:31:37;;;;;;;7.03;6.27;;;12.90;99.90;;;;;;5055077;28;20393;-67
2022/09/23 02:34:23;;;;;;;7.07;6.47;;;12.90;99.90;;;;;;5052793;28;20503;-67
2022/09/23 02:37:09;;;;;;;7.10;6.60;;;12.90;99.90;;;;;;5064143;28;20922;-67
2022/09/23 02:40:00;;;;;;;7.40;6.70;;;12.90;99.90;;;;;;5074008;28;20533;-67
2022/09/23 02:42:38;;;;;;;8.17;7.40;;;12.90;99.90;;;;;;5071270;28;20431;-73
2022/09/23 02:45:04;;;;;;;7.50;6.80;;;12.90;99.90;;;;;;5074704;28;20472;-67
2022/09/23 02:47:34;;;;;;;10.47;6.83;;;12.90;99.90;;;;;;5073865;28;20456;-67
2022/09/23 02:50:00;;;;;;;7.67;6.83;;;12.90;99.90;;;;;;5074861;28;20537;-67
2022/09/23 02:52:26;;;;;;;6.87;6.17;;;12.90;99.90;;;;;;5074171;28;20771;-73
2022/09/23 02:54:52;;;;;;;7.70;6.90;;;12.90;99.90;;;;;;5074534;28;20438;-67
2022/09/23 02:57:18;;;;;;;7.73;6.63;;;12.90;99.90;;;;;;5061143;28;20470;-67
2022/09/23 02:59:45;;;;;;;7.50;6.73;;;12.90;99.90;;;;;;5053655;28;20182;-67
2022/09/23 03:02:51;;;;;;;11.23;6.80;;;12.80;99.90;;;;;;5057353;28;20427;-67
2022/09/23 03:05:23;;;;;;;9.30;7.50;;;12.90;99.90;;;;;;5072556;28;20487;-67
2022/09/23 03:08:07;;;;;;;8.07;7.33;;;12.90;99.90;;;;;;5073760;28;20416;-67
2022/09/23 03:10:42;;;;;;;7.40;6.83;;;12.90;99.90;;;;;;5073590;28;20401;-68
2022/09/23 03:13:13;;;;;;;7.43;6.73;;;12.90;99.90;;;;;;5074405;28;20414;-67
2022/09/23 03:15:50;;;;;;;9.87;7.53;;;12.90;99.90;;;;;;5070874;28;20491;-67
2022/09/23 03:18:22;;;;;;;8.67;7.80;;;12.90;99.90;;;;;;5074099;28;20400;-67
2022/09/23 03:21:27;;;;;;;7.13;6.53;;;12.90;99.90;;;;;;5089084;28;20502;-67
2022/09/23 03:23:56;;;;;;;8.37;7.57;;;12.80;99.90;;;;;;5073524;28;20470;-67
2022/09/23 03:26:31;;;;;;;9.07;8.23;;;12.80;99.90;;;;;;5052903;28;21000;-67
2022/09/23 03:28:57;;;;;;;8.53;7.80;;;12.80;99.90;;;;;;5054103;28;20461;-67
2022/09/23 03:31:24;;;;;;;8.67;7.87;;;12.80;99.90;;;;;;5073864;28;20451;-67
2022/09/23 03:33:54;;;;;;;8.33;7.60;;;12.80;99.90;;;;;;5073079;28;20758;-67
2022/09/23 03:39:35;;;;;;;9.37;8.47;;;12.80;99.90;;;;;;5073862;28;20775;-67
2022/09/23 03:42:17;;;;;;;9.63;8.03;;;12.70;99.90;;;;;;5073720;28;20492;-67
2022/09/23 03:44:45;;;;;;;8.43;7.70;;;12.70;99.90;;;;;;5072922;28;20390;-67
2022/09/23 03:47:12;;;;;;;9.13;8.43;;;12.70;99.90;;;;;;5073508;28;20498;-68
2022/09/23 03:49:39;;;;;;;10.87;8.60;;;12.70;99.90;;;;;;5071960;28;20427;-67
2022/09/23 03:52:06;;;;;;;8.50;7.73;;;12.80;99.90;;;;;;5072817;28;20514;-73
2022/09/23 03:54:32;;;;;;;9.70;7.43;;;12.80;99.90;;;;;;5069336;28;20947;-68
2022/09/23 03:57:00;;;;;;;8.97;8.17;;;12.80;99.90;;;;;;5073374;28;20419;-67
2022/09/23 03:59:29;;;;;;;9.27;8.47;;;12.70;99.90;;;;;;5072169;28;20482;-67
2022/09/23 04:01:55;;;;;;;9.73;8.77;;;12.70;99.90;;;;;;5073229;28;20501;-67
2022/09/23 04:04:21;;;;;;;10.30;8.47;;;12.70;99.90;;;;;;5073161;28;20423;-70
2022/09/23 04:06:47;;;;;;;8.93;8.13;;;12.70;99.90;;;;;;5053185;28;20493;-67
2022/09/23 04:09:12;;;;;;;9.53;8.37;;;12.70;99.90;;;;;;5044979;28;20429;-67
2022/09/23 04:11:38;;;;;;;8.23;7.40;;;12.70;99.90;;;;;;5048803;28;20226;-68
2022/09/23 04:14:04;;;;;;;8.63;7.83;;;12.70;99.90;;;;;;5053468;28;20456;-67
2022/09/23 04:16:30;;;;;;;9.73;7.87;;;12.70;99.90;;;;;;5052335;28;20237;-69
2022/09/23 04:18:56;;;;;;;9.53;7.23;;;12.80;99.90;;;;;;5051687;28;20498;-68
2022/09/23 04:21:21;;;;;;;9.30;8.40;;;12.70;99.90;;;;;;5033375;28;20181;-68
2022/09/23 04:23:47;;;;;;;8.63;7.93;;;12.70;99.90;;;;;;5032739;28;20223;-68
2022/09/23 04:26:14;;;;;;;9.03;8.20;;;12.70;99.90;;;;;;5033346;28;20210;-67
2022/09/23 04:28:40;;;;;;;8.67;6.90;;;12.70;99.90;;;;;;5048030;28;20177;-67
2022/09/23 04:31:07;;;;;;;8.80;7.90;;;12.70;99.90;;;;;;5053431;28;20409;-67
2022/09/23 04:33:33;;;;;;;7.20;6.60;;;12.70;99.90;;;;;;5052547;28;20454;-67
2022/09/23 04:35:59;;;;;;;7.63;6.73;;;12.60;99.90;;;;;;5053094;28;20894;-67
2022/09/23 04:38:25;;;;;;;8.73;7.77;;;12.70;99.90;;;;;;5049307;28;20522;-67
2022/09/23 04:40:50;;;;;;;9.77;8.90;;;12.70;99.90;;;;;;5034683;28;20452;-67
2022/09/23 04:43:16;;;;;;;8.10;7.33;;;12.60;99.90;;;;;;5033085;28;20876;-67
2022/09/23 04:45:42;;;;;;;7.80;7.20;;;12.70;99.90;;;;;;5051741;28;20209;-67
2022/09/23 04:48:09;;;;;;;7.50;7.00;;;12.60;99.90;;;;;;5052927;28;20188;-67
2022/09/23 04:50:36;;;;;;;6.83;6.23;;;12.60;99.90;;;;;;5052273;28;20796;-67
2022/09/23 04:53:03;;;;;;;8.50;7.80;;;12.60;99.90;;;;;;5052766;28;20467;-67
2022/09/23 04:55:29;;;;;;;8.20;7.53;;;12.70;99.90;;;;;;5052848;28;20411;-67
2022/09/23 04:57:55;;;;;;;7.70;6.87;;;12.50;99.90;;;;;;5052437;28;20403;-67
2022/09/23 05:00:22;;;;;;;8.37;6.83;;;12.50;99.90;;;;;;5052759;28;20412;-67
2022/09/23 05:02:49;;;;;;;8.00;7.30;;;12.50;99.90;;;;;;5051903;28;20188;-67
2022/09/23 05:05:19;;;;;;;8.30;7.70;;;12.60;99.90;;;;;;5050543;28;20759;-67
2022/09/23 05:07:47;;;;;;;9.33;8.63;;;12.50;99.90;;;;;;5051248;28;20449;-68
2022/09/23 05:10:13;;;;;;;10.27;8.70;;;12.40;99.90;;;;;;5066899;28;20437;-67
2022/09/23 05:12:39;;;;;;;11.40;7.77;;;12.50;99.90;;;;;;5060647;28;20492;-67
2022/09/23 05:15:05;;;;;;;9.53;8.50;;;12.40;99.90;;;;;;5051506;28;20927;-67
2022/09/23 05:17:31;;;;;;;9.50;8.63;;;12.40;99.90;;;;;;5033834;28;20198;-68
2022/09/23 05:19:58;;;;;;;9.10;8.20;;;12.40;99.90;;;;;;5041474;28;20436;-67
2022/09/23 05:22:28;;;;;;;9.80;8.20;;;12.50;99.90;;;;;;5039690;28;20821;-68
2022/09/23 05:24:53;;;;;;;10.57;9.33;;;12.40;99.90;;;;;;5044761;28;20791;-71
2022/09/23 05:27:19;;;;;;;9.23;8.33;;;12.40;99.90;;;;;;5047605;28;20472;-67
2022/09/23 05:29:46;;;;;;;8.70;7.97;;;12.40;99.90;;;;;;5051763;28;20181;-67
2022/09/23 05:32:13;;;;;;;7.87;6.70;;;12.40;99.90;;;;;;5042274;28;20435;-68
2022/09/23 05:34:39;;;;;;;7.50;6.83;;;12.40;99.90;;;;;;5052149;28;20422;-67
2022/09/23 05:37:04;;;;;;;7.43;6.53;;;12.40;99.90;;;;;;5051281;28;20582;-67
2022/09/23 05:39:30;;;;;;;7.40;6.70;;;12.40;99.90;;;;;;5052263;28;20505;-67
2022/09/23 05:41:56;;;;;;;7.57;6.97;;;12.40;99.90;;;;;;5052231;28;20181;-67
2022/09/23 05:44:22;;;;;;;6.00;5.60;;;12.40;99.90;;;;;;5048705;28;20210;-67
2022/09/23 05:46:48;;;;;;;8.03;7.00;;;12.40;99.90;;;;;;5058300;28;20969;-67
2022/09/23 05:49:13;;;;;;;8.13;7.37;;;12.40;99.90;;;;;;5066453;28;20188;-67
2022/09/23 05:51:39;;;;;;;7.00;6.40;;;12.50;99.90;;;;;;5060821;28;20433;-67
2022/09/23 05:54:05;;;;;;;7.17;6.67;;;12.50;99.90;;;;;;5062154;28;20291;-67
2022/09/23 05:56:32;;;;;;;7.63;7.03;;;12.50;99.90;;;;;;5059885;28;20185;-67
2022/09/23 05:58:59;;;;;;;7.03;6.53;;;12.50;99.90;;;;;;5059567;28;20197;-67
2022/09/23 06:01:27;;;;;;;8.20;7.70;;;12.50;99.90;;;;;;5072168;28;20418;-67
2022/09/23 06:03:55;;;;;;;7.80;7.20;;;12.50;99.90;;;;;;5073963;28;20430;-67
2022/09/23 06:06:26;;;;;;;7.40;6.90;;;12.50;99.90;;;;;;5067806;28;20465;-67
2022/09/23 06:08:52;;;;;;;8.20;7.40;;;12.50;99.90;;;;;;5059628;28;20435;-69
2022/09/23 06:11:20;;;;;;;8.53;7.63;;;12.60;99.90;;;;;;5062596;28;20435;-68
2022/09/23 06:13:46;;;;;;;8.70;8.00;;;12.60;99.90;;;;;;5071579;28;20193;-68
2022/09/23 06:16:14;;;;;;;7.40;6.80;;;12.90;99.90;;;;;;5042827;28;20478;-67
2022/09/23 06:18:44;;;;;;;6.47;5.87;;;13.00;99.90;;;;;;5051214;28;20428;-68
2022/09/23 06:21:15;;;;;;;6.60;6.00;;;13.20;99.90;;;;;;5053285;28;20558;-68
2022/09/23 06:23:42;;;;;;;6.70;6.10;;;13.30;99.90;;;;;;5061892;28;20429;-68
2022/09/23 06:26:10;;;;;;;7.90;7.20;;;13.70;99.90;;;;;;5088442;28;20982;-68
2022/09/23 06:28:37;;;;;;;8.53;7.73;;;14.10;99.90;;;;;;5065823;28;20518;-68
2022/09/23 06:31:07;;;;;;;7.53;6.80;;;14.50;99.90;;;;;;5075425;28;20505;-68
2022/09/23 06:33:33;;;;;;;7.80;7.03;;;14.90;99.90;;;;;;5055456;28;20420;-68
2022/09/23 06:36:02;;;;;;;8.60;7.73;;;15.20;99.90;;;;;;5054218;28;20439;-68
2022/09/23 06:38:29;;;;;;;9.10;7.53;;;15.50;99.90;;;;;;5055001;28;20407;-68
2022/09/23 06:40:56;;;;;;;7.30;6.70;;;15.70;99.90;;;;;;5053422;28;20435;-68
2022/09/23 06:43:24;;;;;;;9.43;7.13;;;16.00;99.90;;;;;;5054839;28;20434;-68
2022/09/23 06:46:00;;;;;;;8.10;7.13;;;16.20;99.40;;;;;;5050596;28;20466;-68
2022/09/23 06:48:27;;;;;;;7.57;6.87;;;16.30;99.30;;;;;;5050370;28;20777;-69
2022/09/23 06:50:53;;;;;;;8.07;7.40;;;16.40;98.90;;;;;;5048473;28;20934;-68
2022/09/23 06:53:22;;;;;;;7.90;7.30;;;16.50;98.40;;;;;;5052445;28;20442;-68
2022/09/23 06:55:56;;;;;;;11.03;7.93;;;16.60;98.10;;;;;;5046938;28;20428;-69
2022/09/23 06:58:22;;;;;;;9.43;8.83;;;16.70;97.70;;;;;;5053345;28;20423;-69
2022/09/23 07:00:48;;;;;;;366.87;214.83;;;16.80;97.40;;;;;;5047874;28;20428;-65
2022/09/23 07:03:13;;;;;;;103.67;65.40;;;16.90;97.30;;;;;;5049290;28;20189;-68
2022/09/23 07:05:39;;;;;;;19.33;12.13;;;17.00;97.20;;;;;;5052930;28;20185;-70
2022/09/23 07:08:08;;;;;;;11.17;9.70;;;17.00;96.90;;;;;;4987146;28;20223;-68
2022/09/23 07:10:34;;;;;;;10.80;9.67;;;17.10;96.60;;;;;;4989428;28;20466;-68
2022/09/23 07:13:06;;;;;;;11.07;9.40;;;17.20;96.40;;;;;;4991258;28;21109;-68
2022/09/23 07:15:32;;;;;;;10.30;9.40;;;17.20;96.60;;;;;;4992231;28;20478;-68
2022/09/23 07:17:58;;;;;;;11.43;10.43;;;17.30;96.30;;;;;;4992131;28;20426;-68
2022/09/23 07:20:24;;;;;;;12.13;11.03;;;17.30;96.30;;;;;;4991806;28;20543;-67
2022/09/23 07:22:51;;;;;;;10.50;8.77;;;17.40;95.90;;;;;;4973701;28;20196;-68
2022/09/23 07:25:17;;;;;;;11.97;9.17;;;17.50;95.90;;;;;;4992495;28;20190;-67
2022/09/23 07:27:46;;;;;;;15.30;9.93;;;17.60;95.50;;;;;;4991842;28;20550;-67
2022/09/23 07:30:13;;;;;;;9.07;8.30;;;17.70;95.40;;;;;;4992789;28;20423;-67
2022/09/23 07:32:40;;;;;;;14.00;11.67;;;17.70;95.30;;;;;;4991161;28;20435;-64
2022/09/23 07:35:07;;;;;;;33.33;22.93;;;17.80;95.80;;;;;;4992267;28;20780;-64
2022/09/23 07:37:33;;;;;;;34.13;17.50;;;17.90;95.50;;;;;;4992215;28;20481;-64
2022/09/23 07:39:58;;;;;;;19.73;15.37;;;18.00;95.50;;;;;;5029260;28;20957;-64
2022/09/23 07:42:24;;;;;;;16.10;12.87;;;18.20;94.90;;;;;;5053671;28;20458;-64
2022/09/23 07:44:51;;;;;;;17.37;12.97;;;18.30;94.60;;;;;;5052844;28;20173;-64
2022/09/23 07:47:17;;;;;;;12.03;10.70;;;18.50;94.40;;;;;;5053533;28;20198;-64
2022/09/23 07:49:42;;;;;;;14.60;9.80;;;18.50;94.50;;;;;;5053276;28;20431;-64
2022/09/23 07:52:08;;;;;;;11.13;9.90;;;18.60;94.10;;;;;;5053219;28;20181;-65
2022/09/23 07:54:34;;;;;;;12.23;11.03;;;18.70;93.90;;;;;;5053502;28;20173;-64
2022/09/23 07:57:00;;;;;;;11.93;10.10;;;18.80;94.00;;;;;;5052374;28;20424;-65
2022/09/23 07:59:26;;;;;;;19.10;10.87;;;18.80;94.00;;;;;;5052192;28;20533;-66
2022/09/23 08:01:52;;;;;;;15.13;12.40;;;18.90;94.50;;;;;;5052787;28;20209;-64
2022/09/23 08:04:36;;;;;;;13.23;10.67;;;18.90;94.30;;;;;;5053161;28;20466;-64
2022/09/23 08:07:04;;;;;;;11.60;9.83;;;19.00;94.10;;;;;;5050199;28;20506;-64
2022/09/23 08:09:33;;;;;;;12.83;10.20;;;19.10;93.80;;;;;;5053189;28;20448;-64
2022/09/23 08:11:59;;;;;;;8.80;7.93;;;19.10;93.70;;;;;;5052251;28;20416;-64
2022/09/23 08:14:25;;;;;;;6.93;6.30;;;19.20;93.30;;;;;;5052977;28;20420;-64
2022/09/23 08:16:51;;;;;;;10.73;8.50;;;19.20;93.30;;;;;;5052465;28;20460;-64
2022/09/23 08:19:17;;;;;;;6.70;6.20;;;19.20;93.40;;;;;;5052942;28;20192;-65
2022/09/23 08:21:45;;;;;;;9.17;8.27;;;19.20;92.40;;;;;;5052116;28;20507;-64
2022/09/23 08:24:14;;;;;;;9.90;8.27;;;19.20;93.70;;;;;;5052891;28;20538;-64
2022/09/23 08:26:39;;;;;;;9.00;8.13;;;19.20;93.50;;;;;;5073780;28;20785;-64
2022/09/23 08:29:08;;;;;;;10.03;8.77;;;19.20;92.80;;;;;;5050109;28;20450;-64
2022/09/23 08:31:34;;;;;;;9.20;8.30;;;19.20;92.10;;;;;;5052761;28;20181;-64
2022/09/23 08:34:00;;;;;;;9.17;8.23;;;19.20;91.70;;;;;;5051770;28;20417;-64
2022/09/23 08:36:26;;;;;;;7.80;7.20;;;19.30;91.50;;;;;;5052609;28;20178;-64
2022/09/23 08:38:51;;;;;;;9.10;8.33;;;19.30;91.10;;;;;;5052020;28;20181;-64
2022/09/23 08:41:41;;;;;;;6.77;6.27;;;19.30;90.80;;;;;;5052251;28;20447;-64
2022/09/23 08:44:24;;;;;;;16.23;12.67;;;19.20;90.60;;;;;;5047425;28;20173;-64
2022/09/23 08:46:59;;;;;;;12.07;10.57;;;19.20;90.40;;;;;;5050462;28;20456;-64
2022/09/23 08:49:34;;;;;;;10.67;9.63;;;19.20;90.30;;;;;;5052250;28;20407;-64
2022/09/23 08:52:17;;;;;;;8.17;7.37;;;19.20;90.30;;;;;;5051788;28;20737;-64
2022/09/23 08:54:42;;;;;;;8.33;7.50;;;19.20;90.40;;;;;;5049680;28;20401;-64
2022/09/23 08:57:20;;;;;;;7.10;6.40;;;19.20;90.60;;;;;;5049947;28;20424;-64
2022/09/23 08:59:46;;;;;;;9.73;6.27;;;19.20;90.50;;;;;;5050002;28;20247;-65
2022/09/23 09:02:18;;;;;;;6.80;6.13;;;19.20;90.50;;;;;;5052343;28;20453;-64
2022/09/23 09:04:55;;;;;;;10.00;5.50;;;19.30;90.40;;;;;;5049740;28;20181;-64
2022/09/23 09:07:28;;;;;;;7.07;6.40;;;19.30;90.30;;;;;;5048120;28;20459;-64
2022/09/23 09:10:12;;;;;;;8.67;5.90;;;19.30;90.50;;;;;;5047750;28;20868;-64
2022/09/23 09:12:43;;;;;;;6.07;5.57;;;19.40;90.30;;;;;;5048138;28;20767;-64
2022/09/23 09:15:22;;;;;;;6.30;5.70;;;19.40;91.10;;;;;;5048767;28;20476;-65
2022/09/23 09:18:20;;;;;;;8.47;5.73;;;19.50;90.80;;;;;;5047280;28;20435;-65
2022/09/23 09:21:11;;;;;;;10.00;5.93;;;19.60;90.60;;;;;;5039625;28;20787;-64
2022/09/23 09:23:44;;;;;;;9.03;6.10;;;19.60;90.30;;;;;;5051317;28;20422;-65
2022/09/23 09:26:38;;;;;;;6.10;5.60;;;19.60;90.70;;;;;;5051461;28;20452;-64
2022/09/23 09:29:24;;;;;;;9.33;5.40;;;19.60;90.60;;;;;;5049712;28;20819;-64
2022/09/23 09:31:50;;;;;;;5.93;5.17;;;19.60;90.30;;;;;;5049828;28;20806;-64
2022/09/23 09:34:33;;;;;;;6.03;5.57;;;19.60;90.70;;;;;;5056014;28;20412;-64
2022/09/23 09:37:08;;;;;;;6.87;5.20;;;19.60;90.50;;;;;;5055460;28;20178;-64
2022/09/23 09:39:35;;;;;;;6.10;5.57;;;19.60;90.50;;;;;;5056122;28;20406;-64
2022/09/23 09:42:02;;;;;;;6.77;6.23;;;19.60;90.40;;;;;;5055023;28;20442;-65
2022/09/23 09:44:46;;;;;;;5.60;5.30;;;19.60;90.20;;;;;;5054964;28;20435;-62
2022/09/23 09:47:18;;;;;;;6.67;6.10;;;19.60;90.60;;;;;;5055196;28;20517;-64
2022/09/23 09:50:20;;;;;;;7.23;6.60;;;19.60;90.70;;;;;;5051823;28;20803;-65
2022/09/23 09:52:55;;;;;;;8.23;7.20;;;19.60;90.80;;;;;;5064656;28;20924;-64
2022/09/23 09:55:26;;;;;;;6.80;6.20;;;19.70;90.80;;;;;;5055586;28;20416;-64
2022/09/23 09:58:02;;;;;;;7.63;6.20;;;19.70;90.40;;;;;;5055132;28;20454;-64
2022/09/23 10:00:29;;;;;;;32.10;27.40;;;19.70;90.20;;;;;;5053540;28;20412;-64
2022/09/23 10:03:12;;;;;;;13.97;12.47;;;19.70;91.20;;;;;;5055001;28;20923;-64
2022/09/23 10:05:44;;;;;;;7.50;6.80;;;19.80;90.60;;;;;;5054458;28;20422;-64
2022/09/23 10:08:34;;;;;;;13.73;12.43;;;19.90;90.20;;;;;;5050033;28;20535;-64
2022/09/23 10:11:04;;;;;;;11.37;10.40;;;19.90;90.80;;;;;;5054208;28;20450;-64
2022/09/23 10:13:30;;;;;;;7.40;6.83;;;19.90;90.50;;;;;;5053305;28;20510;-63
2022/09/23 10:15:59;;;;;;;7.23;6.63;;;19.80;90.90;;;;;;5054778;28;20533;-64
2022/09/23 10:18:48;;;;;;;7.13;5.40;;;19.90;90.70;;;;;;5054501;28;20424;-63
2022/09/23 10:21:17;;;;;;;38.20;7.80;;;19.70;91.00;;;;;;5053200;28;20421;-63
2022/09/23 10:23:45;;;;;;;11.87;8.13;;;19.70;91.10;;;;;;5055640;28;20419;-63
2022/09/23 10:26:16;;;;;;;25.50;9.37;;;19.80;91.10;;;;;;5053650;28;20497;-63
2022/09/23 10:28:54;;;;;;;20.80;7.87;;;19.80;90.70;;;;;;5052931;28;20816;-63
2022/09/23 10:31:26;;;;;;;4.73;4.43;;;19.80;90.60;;;;;;5052820;28;20436;-63
2022/09/23 10:33:58;;;;;;;25.27;11.00;;;19.70;88.60;;;;;;5054591;28;20828;-64
2022/09/23 10:36:25;;;;;;;15.90;8.47;;;19.60;89.30;;;;;;5055052;28;20408;-63
2022/09/23 10:46:37;;;;;;;19.70;11.70;;;19.60;90.70;;;;;;5054457;28;20729;-67
2022/09/23 10:48:04;;;;;;;4.27;4.00;;;19.70;89.00;;;;;;5054291;28;20431;-60
2022/09/23 10:50:46;;;;;;;5.07;4.87;;;19.70;83.10;;;;;;5054745;28;20860;-60
2022/09/23 10:53:48;;;;;;;3.23;2.97;;;19.60;86.20;;;;;;5054373;28;20675;-60
2022/09/23 10:56:57;;;;;;;3.50;3.20;;;19.70;85.70;;;;;;5053072;28;20819;-61
2022/09/23 10:59:34;;;;;;;4.23;4.00;;;19.70;82.30;;;;;;5055075;28;20408;-60
2022/09/23 11:02:45;;;;;;;3.63;3.43;;;19.80;85.00;;;;;;5054235;28;20503;-61
2022/09/23 11:05:33;;;;;;;3.13;3.03;;;19.80;82.10;;;;;;5031712;28;20441;-61
2022/09/23 11:07:59;;;;;;;4.07;3.67;;;19.90;84.30;;;;;;5034294;28;20441;-60
2022/09/23 11:10:53;;;;;;;3.97;3.70;;;19.90;81.90;;;;;;5034525;28;20413;-60
2022/09/23 11:13:51;;;;;;;4.43;4.23;;;20.00;84.20;;;;;;5041700;28;20173;-60
2022/09/23 11:16:41;;;;;;;4.07;3.87;;;20.20;86.70;;;;;;5053013;28;20985;-60
2022/09/23 11:19:35;;;;;;;5.33;4.93;;;20.30;84.50;;;;;;5054092;28;20822;-60
2022/09/23 11:22:16;;;;;;;3.80;3.50;;;20.30;80.70;;;;;;5053979;28;20408;-60
2022/09/23 11:25:03;;;;;;;4.10;3.90;;;20.30;77.60;;;;;;5054555;28;20451;-61
2022/09/23 11:27:34;;;;;;;4.13;3.93;;;20.30;77.00;;;;;;5054229;28;20448;-61
2022/09/23 11:30:13;;;;;;;4.27;3.97;;;20.40;79.10;;;;;;5053843;28;20478;-61
2022/09/23 11:32:49;;;;;;;4.07;3.80;;;20.50;84.20;;;;;;5054309;28;20420;-61
2022/09/23 11:35:35;;;;;;;3.93;3.70;;;20.60;83.70;;;;;;5053745;28;20408;-61
2022/09/23 11:38:09;;;;;;;7.10;6.60;;;20.80;77.50;;;;;;5053667;28;20751;-61
2022/09/23 11:40:38;;;;;;;11.40;8.87;;;20.90;78.70;;;;;;5052250;28;20415;-62
2022/09/23 11:43:13;;;;;;;4.87;4.13;;;20.90;80.10;;;;;;5053077;28;20435;-61
2022/09/23 11:45:48;;;;;;;4.60;4.20;;;21.00;74.80;;;;;;5053827;28;20432;-63
2022/09/23 11:48:40;;;;;;;7.70;7.00;;;21.10;77.00;;;;;;5053541;28;20759;-63
2022/09/23 11:51:20;;;;;;;6.33;5.70;;;20.60;78.90;;;;;;5053402;28;20534;-64
2022/09/23 11:54:00;;;;;;;79.30;57.60;;;20.80;80.50;;;;;;5053576;28;20440;-63
2022/09/23 11:56:49;;;;;;;7.60;7.00;;;20.90;81.10;;;;;;5052471;28;20415;-63
2022/09/23 11:59:17;;;;;;;9.53;8.13;;;20.80;71.10;;;;;;5051509;28;20442;-63
2022/09/23 12:01:56;;;;;;;7.70;7.10;;;20.40;69.80;;;;;;5052707;28;20417;-64
2022/09/23 12:04:45;;;;;;;5.27;4.90;;;20.30;72.40;;;;;;5052275;28;20777;-64
2022/09/23 12:07:23;;;;;;;10.83;6.87;;;20.50;72.70;;;;;;5049194;28;20494;-64
2022/09/23 12:10:05;;;;;;;11.60;9.83;;;20.50;74.70;;;;;;5047349;28;20532;-64
2022/09/23 12:12:30;;;;;;;7.57;6.07;;;20.60;76.30;;;;;;5050127;28;20414;-64
2022/09/23 12:15:17;;;;;;;3.77;3.43;;;20.80;75.50;;;;;;5050898;28;20916;-66
2022/09/23 12:18:14;;;;;;;10.67;5.77;;;20.30;67.50;;;;;;5051014;28;20181;-63
2022/09/23 12:20:42;;;;;;;5.80;4.50;;;20.40;74.70;;;;;;5051043;28;20400;-64
2022/09/23 12:23:35;;;;;;;4.00;3.60;;;20.40;73.30;;;;;;5045736;28;20420;-63
2022/09/23 12:26:07;;;;;;;3.83;3.63;;;20.50;72.80;;;;;;5050389;28;20808;-64
2022/09/23 12:28:39;;;;;;;5.47;5.13;;;20.60;71.20;;;;;;5049870;28;20411;-63
2022/09/23 12:31:10;;;;;;;7.47;4.13;;;20.60;74.20;;;;;;5051254;28;20400;-64
2022/09/23 12:33:37;;;;;;;9.90;6.47;;;20.60;74.90;;;;;;5051831;28;20432;-69
2022/09/23 12:36:09;;;;;;;4.47;4.13;;;20.60;74.60;;;;;;5051031;28;20428;-64
2022/09/23 12:38:52;;;;;;;4.07;3.80;;;20.60;73.10;;;;;;5049701;28;20562;-63
2022/09/23 12:41:35;;;;;;;3.70;3.50;;;20.60;73.70;;;;;;5049802;28;20427;-63
2022/09/23 12:44:11;;;;;;;4.07;3.87;;;20.50;72.80;;;;;;5049895;28;20420;-64
2022/09/23 12:46:37;;;;;;;3.30;3.10;;;20.40;70.20;;;;;;5049673;28;20524;-63
2022/09/23 12:49:06;;;;;;;6.10;3.47;;;20.20;69.10;;;;;;5050865;28;20416;-64
2022/09/23 12:51:33;;;;;;;3.60;3.40;;;20.10;73.30;;;;;;5051379;28;20416;-64
2022/09/23 12:54:20;;;;;;;3.77;3.57;;;20.10;72.90;;;;;;5050887;28;20895;-64
2022/09/23 12:56:55;;;;;;;3.30;3.10;;;20.10;73.40;;;;;;5051657;28;20523;-64
2022/09/23 12:59:26;;;;;;;3.37;3.17;;;19.90;69.90;;;;;;5050854;28;20419;-63
2022/09/23 13:01:53;;;;;;;3.70;3.50;;;19.90;72.80;;;;;;5049225;28;20400;-63
2022/09/23 13:07:26;;;;;;;4.83;4.63;;;19.70;74.70;;;;;;5038785;28;20471;-64
2022/09/23 13:10:04;;;;;;;3.90;3.47;;;19.70;73.60;;;;;;5047885;28;20969;-64
2022/09/23 13:12:34;;;;;;;14.73;4.93;;;19.60;74.50;;;;;;5048393;28;20404;-63
2022/09/23 13:15:05;;;;;;;4.30;4.00;;;19.70;76.00;;;;;;5051867;28;20420;-64
2022/09/23 13:17:36;;;;;;;3.90;3.70;;;19.70;74.60;;;;;;5052218;28;20857;-63
2022/09/23 13:20:04;;;;;;;4.40;4.10;;;19.80;74.40;;;;;;5050649;28;20827;-63
2022/09/23 13:23:00;;;;;;;88.07;65.97;;;19.80;75.80;;;;;;5048332;28;20416;-64
2022/09/23 13:25:33;;;;;;;73.37;54.23;;;19.90;76.70;;;;;;5050416;28;20599;-63